sensor_id;sensor_type;location;lat;lon;timestamp;P1;durP1;ratioP1;P2;durP2;ratioP2
56201;SDS011;42117;50.360;3.508;2022-08-30T00:02:02;6.50;;;2.50;;
56201;SDS011;42117;50.360;3.508;2022-08-30T00:04:28;7.45;;;2.08;;
56201;SDS011;42117;50.360;3.508;2022-08-30T00:06:54;2.95;;;2.13;;
56201;SDS011;42117;50.360;3.508;2022-08-30T00:09:20;6.72;;;2.15;;
56201;SDS011;42117;50.360;3.508;2022-08-30T00:11:46;3.60;;;2.10;;
56201;SDS011;42117;50.360;3.508;2022-08-30T00:14:12;8.95;;;2.38;;
56201;SDS011;42117;50.360;3.508;2022-08-30T00:16:38;5.30;;;2.30;;
56201;SDS011;42117;50.360;3.508;2022-08-30T00:19:04;4.47;;;1.95;;
56201;SDS011;42117;50.360;3.508;2022-08-30T00:21:30;4.60;;;1.92;;
56201;SDS011;42117;50.360;3.508;2022-08-30T00:23:56;3.17;;;2.08;;
56201;SDS011;42117;50.360;3.508;2022-08-30T00:26:22;9.40;;;2.55;;
56201;SDS011;42117;50.360;3.508;2022-08-30T00:28:48;6.00;;;2.22;;
56201;SDS011;42117;50.360;3.508;2022-08-30T00:31:14;4.90;;;2.17;;
56201;SDS011;42117;50.360;3.508;2022-08-30T00:33:40;4.68;;;2.35;;
56201;SDS011;42117;50.360;3.508;2022-08-30T00:36:06;6.75;;;2.50;;
56201;SDS011;42117;50.360;3.508;2022-08-30T00:38:32;4.35;;;2.33;;
56201;SDS011;42117;50.360;3.508;2022-08-30T00:40:58;10.05;;;2.45;;
56201;SDS011;42117;50.360;3.508;2022-08-30T00:43:26;4.85;;;2.70;;
56201;SDS011;42117;50.360;3.508;2022-08-30T00:45:52;8.60;;;2.45;;
56201;SDS011;42117;50.360;3.508;2022-08-30T00:48:18;2.83;;;2.35;;
56201;SDS011;42117;50.360;3.508;2022-08-30T00:50:49;6.43;;;2.25;;
56201;SDS011;42117;50.360;3.508;2022-08-30T00:53:16;5.65;;;2.05;;
56201;SDS011;42117;50.360;3.508;2022-08-30T00:55:44;3.10;;;1.70;;
56201;SDS011;42117;50.360;3.508;2022-08-30T00:58:12;3.50;;;2.25;;
56201;SDS011;42117;50.360;3.508;2022-08-30T01:00:40;5.43;;;2.08;;
56201;SDS011;42117;50.360;3.508;2022-08-30T01:03:06;5.00;;;2.22;;
56201;SDS011;42117;50.360;3.508;2022-08-30T01:05:33;5.75;;;2.55;;
56201;SDS011;42117;50.360;3.508;2022-08-30T01:08:00;4.53;;;2.40;;
56201;SDS011;42117;50.360;3.508;2022-08-30T01:10:26;9.38;;;2.22;;
56201;SDS011;42117;50.360;3.508;2022-08-30T01:12:52;6.47;;;2.50;;
56201;SDS011;42117;50.360;3.508;2022-08-30T01:15:18;4.85;;;2.38;;
56201;SDS011;42117;50.360;3.508;2022-08-30T01:17:44;4.38;;;2.30;;
56201;SDS011;42117;50.360;3.508;2022-08-30T01:20:12;4.63;;;2.38;;
56201;SDS011;42117;50.360;3.508;2022-08-30T01:22:42;2.60;;;2.25;;
56201;SDS011;42117;50.360;3.508;2022-08-30T01:27:36;3.80;;;1.92;;
56201;SDS011;42117;50.360;3.508;2022-08-30T01:30:03;8.15;;;2.45;;
56201;SDS011;42117;50.360;3.508;2022-08-30T01:32:30;7.60;;;2.85;;
56201;SDS011;42117;50.360;3.508;2022-08-30T01:34:56;6.95;;;2.10;;
56201;SDS011;42117;50.360;3.508;2022-08-30T01:37:23;6.38;;;2.38;;
56201;SDS011;42117;50.360;3.508;2022-08-30T01:39:50;8.07;;;3.33;;
56201;SDS011;42117;50.360;3.508;2022-08-30T01:42:16;3.85;;;2.40;;
56201;SDS011;42117;50.360;3.508;2022-08-30T01:44:43;4.30;;;2.60;;
56201;SDS011;42117;50.360;3.508;2022-08-30T01:47:09;9.98;;;2.33;;
56201;SDS011;42117;50.360;3.508;2022-08-30T01:49:36;5.85;;;1.85;;
56201;SDS011;42117;50.360;3.508;2022-08-30T01:52:03;5.78;;;2.47;;
56201;SDS011;42117;50.360;3.508;2022-08-30T01:54:30;6.80;;;2.33;;
56201;SDS011;42117;50.360;3.508;2022-08-30T01:56:57;10.00;;;2.35;;
56201;SDS011;42117;50.360;3.508;2022-08-30T01:59:23;3.80;;;2.20;;
56201;SDS011;42117;50.360;3.508;2022-08-30T02:01:49;4.47;;;2.40;;
56201;SDS011;42117;50.360;3.508;2022-08-30T02:04:15;6.45;;;3.08;;
56201;SDS011;42117;50.360;3.508;2022-08-30T02:06:42;6.90;;;1.90;;
56201;SDS011;42117;50.360;3.508;2022-08-30T02:09:09;4.25;;;2.30;;
56201;SDS011;42117;50.360;3.508;2022-08-30T02:11:35;7.18;;;2.70;;
56201;SDS011;42117;50.360;3.508;2022-08-30T02:14:01;3.17;;;2.13;;
56201;SDS011;42117;50.360;3.508;2022-08-30T02:16:27;6.45;;;2.22;;
56201;SDS011;42117;50.360;3.508;2022-08-30T02:18:54;12.57;;;2.58;;
56201;SDS011;42117;50.360;3.508;2022-08-30T02:21:21;6.93;;;2.42;;
56201;SDS011;42117;50.360;3.508;2022-08-30T02:23:47;4.53;;;2.30;;
56201;SDS011;42117;50.360;3.508;2022-08-30T02:26:14;8.85;;;3.00;;
56201;SDS011;42117;50.360;3.508;2022-08-30T02:28:40;7.40;;;3.33;;
56201;SDS011;42117;50.360;3.508;2022-08-30T02:31:06;9.73;;;3.00;;
56201;SDS011;42117;50.360;3.508;2022-08-30T02:33:32;7.05;;;2.75;;
56201;SDS011;42117;50.360;3.508;2022-08-30T02:35:58;4.72;;;2.35;;
56201;SDS011;42117;50.360;3.508;2022-08-30T02:38:24;8.18;;;2.67;;
56201;SDS011;42117;50.360;3.508;2022-08-30T02:40:51;4.13;;;2.35;;
56201;SDS011;42117;50.360;3.508;2022-08-30T02:43:17;8.50;;;2.30;;
56201;SDS011;42117;50.360;3.508;2022-08-30T02:45:43;5.22;;;2.90;;
56201;SDS011;42117;50.360;3.508;2022-08-30T02:48:09;7.55;;;2.92;;
56201;SDS011;42117;50.360;3.508;2022-08-30T02:50:39;5.13;;;2.65;;
56201;SDS011;42117;50.360;3.508;2022-08-30T02:53:05;3.90;;;2.45;;
56201;SDS011;42117;50.360;3.508;2022-08-30T02:55:31;6.72;;;3.13;;
56201;SDS011;42117;50.360;3.508;2022-08-30T02:57:58;7.80;;;2.85;;
56201;SDS011;42117;50.360;3.508;2022-08-30T03:00:24;5.20;;;2.55;;
56201;SDS011;42117;50.360;3.508;2022-08-30T03:02:50;8.50;;;3.25;;
56201;SDS011;42117;50.360;3.508;2022-08-30T03:05:16;6.65;;;2.35;;
56201;SDS011;42117;50.360;3.508;2022-08-30T03:07:43;6.53;;;2.58;;
56201;SDS011;42117;50.360;3.508;2022-08-30T03:10:13;5.32;;;2.80;;
56201;SDS011;42117;50.360;3.508;2022-08-30T03:12:39;6.55;;;2.63;;
56201;SDS011;42117;50.360;3.508;2022-08-30T03:15:06;6.30;;;2.90;;
56201;SDS011;42117;50.360;3.508;2022-08-30T03:17:32;5.97;;;3.15;;
56201;SDS011;42117;50.360;3.508;2022-08-30T03:19:58;11.52;;;3.35;;
56201;SDS011;42117;50.360;3.508;2022-08-30T03:22:25;9.95;;;2.72;;
56201;SDS011;42117;50.360;3.508;2022-08-30T03:24:51;5.07;;;2.60;;
56201;SDS011;42117;50.360;3.508;2022-08-30T03:27:17;6.78;;;3.33;;
56201;SDS011;42117;50.360;3.508;2022-08-30T03:29:43;5.85;;;3.22;;
56201;SDS011;42117;50.360;3.508;2022-08-30T03:32:09;3.88;;;2.60;;
56201;SDS011;42117;50.360;3.508;2022-08-30T03:34:35;6.28;;;2.88;;
56201;SDS011;42117;50.360;3.508;2022-08-30T03:37:01;6.03;;;3.42;;
56201;SDS011;42117;50.360;3.508;2022-08-30T03:39:27;12.00;;;4.22;;
56201;SDS011;42117;50.360;3.508;2022-08-30T03:41:53;5.82;;;3.20;;
56201;SDS011;42117;50.360;3.508;2022-08-30T03:44:19;7.35;;;3.80;;
56201;SDS011;42117;50.360;3.508;2022-08-30T03:46:45;11.32;;;3.45;;
56201;SDS011;42117;50.360;3.508;2022-08-30T03:49:11;7.35;;;4.07;;
56201;SDS011;42117;50.360;3.508;2022-08-30T03:51:37;6.20;;;3.47;;
56201;SDS011;42117;50.360;3.508;2022-08-30T03:54:03;7.15;;;3.40;;
56201;SDS011;42117;50.360;3.508;2022-08-30T03:56:29;12.80;;;3.95;;
56201;SDS011;42117;50.360;3.508;2022-08-30T03:58:55;5.93;;;3.30;;
56201;SDS011;42117;50.360;3.508;2022-08-30T04:01:21;7.57;;;3.08;;
56201;SDS011;42117;50.360;3.508;2022-08-30T04:03:48;6.07;;;3.05;;
56201;SDS011;42117;50.360;3.508;2022-08-30T04:06:14;6.25;;;4.05;;
56201;SDS011;42117;50.360;3.508;2022-08-30T04:08:40;5.22;;;3.42;;
56201;SDS011;42117;50.360;3.508;2022-08-30T04:11:08;10.25;;;3.95;;
56201;SDS011;42117;50.360;3.508;2022-08-30T04:13:34;9.25;;;3.63;;
56201;SDS011;42117;50.360;3.508;2022-08-30T04:16:00;13.90;;;3.67;;
56201;SDS011;42117;50.360;3.508;2022-08-30T04:18:26;7.85;;;4.53;;
56201;SDS011;42117;50.360;3.508;2022-08-30T04:20:52;11.13;;;4.22;;
56201;SDS011;42117;50.360;3.508;2022-08-30T04:23:18;12.73;;;3.40;;
56201;SDS011;42117;50.360;3.508;2022-08-30T04:25:44;6.35;;;3.88;;
56201;SDS011;42117;50.360;3.508;2022-08-30T04:28:11;4.30;;;3.28;;
56201;SDS011;42117;50.360;3.508;2022-08-30T04:30:37;9.52;;;4.68;;
56201;SDS011;42117;50.360;3.508;2022-08-30T04:33:03;11.63;;;3.80;;
56201;SDS011;42117;50.360;3.508;2022-08-30T04:35:30;9.40;;;4.10;;
56201;SDS011;42117;50.360;3.508;2022-08-30T04:37:56;10.38;;;4.32;;
56201;SDS011;42117;50.360;3.508;2022-08-30T04:40:22;8.27;;;3.63;;
56201;SDS011;42117;50.360;3.508;2022-08-30T04:42:48;9.68;;;4.32;;
56201;SDS011;42117;50.360;3.508;2022-08-30T04:45:18;7.30;;;4.43;;
56201;SDS011;42117;50.360;3.508;2022-08-30T04:47:44;7.30;;;4.20;;
56201;SDS011;42117;50.360;3.508;2022-08-30T04:50:10;10.40;;;4.25;;
56201;SDS011;42117;50.360;3.508;2022-08-30T04:52:37;8.35;;;3.33;;
56201;SDS011;42117;50.360;3.508;2022-08-30T04:55:03;6.72;;;4.10;;
56201;SDS011;42117;50.360;3.508;2022-08-30T04:57:29;9.18;;;4.65;;
56201;SDS011;42117;50.360;3.508;2022-08-30T04:59:55;13.25;;;4.30;;
56201;SDS011;42117;50.360;3.508;2022-08-30T05:02:21;10.77;;;4.20;;
56201;SDS011;42117;50.360;3.508;2022-08-30T05:04:47;25.33;;;4.43;;
56201;SDS011;42117;50.360;3.508;2022-08-30T05:07:32;14.50;;;5.10;;
56201;SDS011;42117;50.360;3.508;2022-08-30T05:09:58;8.85;;;4.75;;
56201;SDS011;42117;50.360;3.508;2022-08-30T05:12:24;13.57;;;4.78;;
56201;SDS011;42117;50.360;3.508;2022-08-30T05:14:51;18.95;;;4.85;;
56201;SDS011;42117;50.360;3.508;2022-08-30T05:17:17;9.07;;;4.93;;
56201;SDS011;42117;50.360;3.508;2022-08-30T05:19:43;15.38;;;5.22;;
56201;SDS011;42117;50.360;3.508;2022-08-30T05:22:09;10.82;;;4.45;;
56201;SDS011;42117;50.360;3.508;2022-08-30T05:24:35;8.15;;;4.53;;
56201;SDS011;42117;50.360;3.508;2022-08-30T05:27:01;11.43;;;5.25;;
56201;SDS011;42117;50.360;3.508;2022-08-30T05:29:29;13.13;;;4.55;;
56201;SDS011;42117;50.360;3.508;2022-08-30T05:31:55;8.77;;;3.90;;
56201;SDS011;42117;50.360;3.508;2022-08-30T05:34:21;10.52;;;4.82;;
56201;SDS011;42117;50.360;3.508;2022-08-30T05:36:47;11.35;;;4.47;;
56201;SDS011;42117;50.360;3.508;2022-08-30T05:39:13;12.90;;;5.25;;
56201;SDS011;42117;50.360;3.508;2022-08-30T05:41:39;11.32;;;5.47;;
56201;SDS011;42117;50.360;3.508;2022-08-30T05:44:06;11.27;;;5.35;;
56201;SDS011;42117;50.360;3.508;2022-08-30T05:46:32;15.10;;;4.78;;
56201;SDS011;42117;50.360;3.508;2022-08-30T05:48:59;10.98;;;4.72;;
56201;SDS011;42117;50.360;3.508;2022-08-30T05:51:29;15.82;;;4.75;;
56201;SDS011;42117;50.360;3.508;2022-08-30T05:53:56;14.68;;;5.25;;
56201;SDS011;42117;50.360;3.508;2022-08-30T05:56:24;11.95;;;4.82;;
56201;SDS011;42117;50.360;3.508;2022-08-30T05:58:51;21.30;;;5.57;;
56201;SDS011;42117;50.360;3.508;2022-08-30T06:01:23;13.38;;;4.53;;
56201;SDS011;42117;50.360;3.508;2022-08-30T06:03:49;11.48;;;4.65;;
56201;SDS011;42117;50.360;3.508;2022-08-30T06:06:15;14.13;;;5.22;;
56201;SDS011;42117;50.360;3.508;2022-08-30T06:08:41;7.93;;;4.43;;
56201;SDS011;42117;50.360;3.508;2022-08-30T06:11:10;10.63;;;5.07;;
56201;SDS011;42117;50.360;3.508;2022-08-30T06:13:37;33.80;;;5.85;;
56201;SDS011;42117;50.360;3.508;2022-08-30T06:16:03;15.10;;;4.65;;
56201;SDS011;42117;50.360;3.508;2022-08-30T06:18:29;11.07;;;4.25;;
56201;SDS011;42117;50.360;3.508;2022-08-30T06:20:55;12.88;;;4.80;;
56201;SDS011;42117;50.360;3.508;2022-08-30T06:23:22;16.60;;;4.10;;
56201;SDS011;42117;50.360;3.508;2022-08-30T06:25:48;15.63;;;4.85;;
56201;SDS011;42117;50.360;3.508;2022-08-30T06:28:14;14.27;;;5.30;;
56201;SDS011;42117;50.360;3.508;2022-08-30T06:30:41;18.50;;;5.22;;
56201;SDS011;42117;50.360;3.508;2022-08-30T06:33:07;10.82;;;5.00;;
56201;SDS011;42117;50.360;3.508;2022-08-30T06:35:33;15.38;;;4.82;;
56201;SDS011;42117;50.360;3.508;2022-08-30T06:37:59;13.32;;;4.35;;
56201;SDS011;42117;50.360;3.508;2022-08-30T06:40:25;17.35;;;5.47;;
56201;SDS011;42117;50.360;3.508;2022-08-30T06:42:51;16.02;;;5.35;;
56201;SDS011;42117;50.360;3.508;2022-08-30T06:45:18;12.45;;;5.53;;
56201;SDS011;42117;50.360;3.508;2022-08-30T06:47:45;19.00;;;5.72;;
56201;SDS011;42117;50.360;3.508;2022-08-30T06:50:12;15.95;;;5.20;;
56201;SDS011;42117;50.360;3.508;2022-08-30T06:52:41;14.93;;;5.05;;
56201;SDS011;42117;50.360;3.508;2022-08-30T06:55:11;9.65;;;4.78;;
56201;SDS011;42117;50.360;3.508;2022-08-30T06:57:38;13.85;;;5.50;;
56201;SDS011;42117;50.360;3.508;2022-08-30T07:00:05;13.63;;;5.88;;
56201;SDS011;42117;50.360;3.508;2022-08-30T07:02:31;15.30;;;5.82;;
56201;SDS011;42117;50.360;3.508;2022-08-30T07:04:57;16.30;;;5.63;;
56201;SDS011;42117;50.360;3.508;2022-08-30T07:07:23;19.15;;;6.53;;
56201;SDS011;42117;50.360;3.508;2022-08-30T07:09:49;19.73;;;6.47;;
56201;SDS011;42117;50.360;3.508;2022-08-30T07:12:15;16.48;;;6.80;;
56201;SDS011;42117;50.360;3.508;2022-08-30T07:14:41;18.70;;;6.13;;
56201;SDS011;42117;50.360;3.508;2022-08-30T07:17:07;23.67;;;6.50;;
56201;SDS011;42117;50.360;3.508;2022-08-30T07:19:52;10.75;;;5.35;;
56201;SDS011;42117;50.360;3.508;2022-08-30T07:22:18;14.27;;;6.03;;
56201;SDS011;42117;50.360;3.508;2022-08-30T07:24:44;13.52;;;5.28;;
56201;SDS011;42117;50.360;3.508;2022-08-30T07:27:10;9.90;;;6.25;;
56201;SDS011;42117;50.360;3.508;2022-08-30T07:29:36;16.35;;;5.88;;
56201;SDS011;42117;50.360;3.508;2022-08-30T07:32:02;9.68;;;5.07;;
56201;SDS011;42117;50.360;3.508;2022-08-30T07:34:29;10.52;;;5.60;;
56201;SDS011;42117;50.360;3.508;2022-08-30T07:36:55;12.77;;;5.10;;
56201;SDS011;42117;50.360;3.508;2022-08-30T07:39:21;15.40;;;5.68;;
56201;SDS011;42117;50.360;3.508;2022-08-30T07:41:46;14.63;;;4.90;;
56201;SDS011;42117;50.360;3.508;2022-08-30T07:44:13;12.70;;;4.85;;
56201;SDS011;42117;50.360;3.508;2022-08-30T07:46:39;12.60;;;5.78;;
56201;SDS011;42117;50.360;3.508;2022-08-30T07:49:06;17.52;;;5.53;;
56201;SDS011;42117;50.360;3.508;2022-08-30T07:51:33;14.35;;;6.30;;
56201;SDS011;42117;50.360;3.508;2022-08-30T07:53:59;11.07;;;5.10;;
56201;SDS011;42117;50.360;3.508;2022-08-30T07:56:25;9.38;;;4.88;;
56201;SDS011;42117;50.360;3.508;2022-08-30T07:58:52;8.90;;;4.72;;
56201;SDS011;42117;50.360;3.508;2022-08-30T08:01:18;14.20;;;5.65;;
56201;SDS011;42117;50.360;3.508;2022-08-30T08:03:45;14.80;;;4.75;;
56201;SDS011;42117;50.360;3.508;2022-08-30T08:06:12;12.13;;;5.10;;
56201;SDS011;42117;50.360;3.508;2022-08-30T08:08:39;18.35;;;5.85;;
56201;SDS011;42117;50.360;3.508;2022-08-30T08:11:06;7.00;;;4.35;;
56201;SDS011;42117;50.360;3.508;2022-08-30T08:13:33;17.65;;;5.18;;
56201;SDS011;42117;50.360;3.508;2022-08-30T08:15:59;14.27;;;6.13;;
56201;SDS011;42117;50.360;3.508;2022-08-30T08:18:25;10.13;;;4.40;;
56201;SDS011;42117;50.360;3.508;2022-08-30T08:20:51;13.18;;;4.97;;
56201;SDS011;42117;50.360;3.508;2022-08-30T08:23:17;13.00;;;5.45;;
56201;SDS011;42117;50.360;3.508;2022-08-30T08:25:43;14.38;;;5.97;;
56201;SDS011;42117;50.360;3.508;2022-08-30T08:28:09;13.68;;;6.00;;
56201;SDS011;42117;50.360;3.508;2022-08-30T08:30:35;13.32;;;5.20;;
56201;SDS011;42117;50.360;3.508;2022-08-30T08:33:02;13.63;;;4.35;;
56201;SDS011;42117;50.360;3.508;2022-08-30T08:35:29;20.63;;;6.13;;
56201;SDS011;42117;50.360;3.508;2022-08-30T08:37:55;14.52;;;5.65;;
56201;SDS011;42117;50.360;3.508;2022-08-30T08:40:21;11.73;;;4.10;;
56201;SDS011;42117;50.360;3.508;2022-08-30T08:42:50;12.40;;;5.28;;
56201;SDS011;42117;50.360;3.508;2022-08-30T08:45:34;13.25;;;4.80;;
56201;SDS011;42117;50.360;3.508;2022-08-30T08:48:11;9.77;;;4.43;;
56201;SDS011;42117;50.360;3.508;2022-08-30T08:50:39;6.78;;;4.53;;
56201;SDS011;42117;50.360;3.508;2022-08-30T08:53:25;11.02;;;4.05;;
56201;SDS011;42117;50.360;3.508;2022-08-30T08:56:02;11.75;;;4.63;;
56201;SDS011;42117;50.360;3.508;2022-08-30T08:58:30;8.85;;;5.13;;
56201;SDS011;42117;50.360;3.508;2022-08-30T09:00:57;11.68;;;5.10;;
56201;SDS011;42117;50.360;3.508;2022-08-30T09:03:25;9.27;;;4.78;;
56201;SDS011;42117;50.360;3.508;2022-08-30T09:05:51;13.73;;;5.15;;
56201;SDS011;42117;50.360;3.508;2022-08-30T09:08:18;10.73;;;5.00;;
56201;SDS011;42117;50.360;3.508;2022-08-30T09:10:53;9.23;;;4.07;;
56201;SDS011;42117;50.360;3.508;2022-08-30T09:13:21;10.23;;;4.60;;
56201;SDS011;42117;50.360;3.508;2022-08-30T09:15:49;15.73;;;5.10;;
56201;SDS011;42117;50.360;3.508;2022-08-30T09:18:15;11.65;;;4.53;;
56201;SDS011;42117;50.360;3.508;2022-08-30T09:20:43;10.93;;;4.18;;
56201;SDS011;42117;50.360;3.508;2022-08-30T09:25:39;11.13;;;4.20;;
56201;SDS011;42117;50.360;3.508;2022-08-30T09:28:13;18.52;;;4.63;;
56201;SDS011;42117;50.360;3.508;2022-08-30T09:30:56;13.98;;;4.50;;
56201;SDS011;42117;50.360;3.508;2022-08-30T09:33:22;16.38;;;4.95;;
56201;SDS011;42117;50.360;3.508;2022-08-30T09:35:49;18.58;;;4.68;;
56201;SDS011;42117;50.360;3.508;2022-08-30T09:38:30;15.23;;;4.90;;
56201;SDS011;42117;50.360;3.508;2022-08-30T09:41:00;7.40;;;4.13;;
56201;SDS011;42117;50.360;3.508;2022-08-30T09:43:32;17.50;;;4.20;;
56201;SDS011;42117;50.360;3.508;2022-08-30T09:51:03;10.95;;;3.88;;
56201;SDS011;42117;50.360;3.508;2022-08-30T09:53:34;16.65;;;4.22;;
56201;SDS011;42117;50.360;3.508;2022-08-30T10:03:48;11.18;;;4.22;;
56201;SDS011;42117;50.360;3.508;2022-08-30T10:11:31;9.30;;;4.18;;
56201;SDS011;42117;50.360;3.508;2022-08-30T10:21:40;10.02;;;3.67;;
56201;SDS011;42117;50.360;3.508;2022-08-30T10:24:09;9.82;;;4.30;;
56201;SDS011;42117;50.360;3.508;2022-08-30T10:26:41;9.10;;;3.83;;
56201;SDS011;42117;50.360;3.508;2022-08-30T10:29:22;10.38;;;4.07;;
56201;SDS011;42117;50.360;3.508;2022-08-30T10:32:04;5.07;;;3.55;;
56201;SDS011;42117;50.360;3.508;2022-08-30T10:34:37;13.02;;;3.92;;
56201;SDS011;42117;50.360;3.508;2022-08-30T10:37:15;8.07;;;3.60;;
56201;SDS011;42117;50.360;3.508;2022-08-30T10:39:46;17.45;;;4.43;;
56201;SDS011;42117;50.360;3.508;2022-08-30T10:42:17;9.13;;;4.03;;
56201;SDS011;42117;50.360;3.508;2022-08-30T10:44:47;12.60;;;4.90;;
56201;SDS011;42117;50.360;3.508;2022-08-30T10:50:03;12.73;;;3.95;;
56201;SDS011;42117;50.360;3.508;2022-08-30T10:52:38;10.57;;;3.63;;
56201;SDS011;42117;50.360;3.508;2022-08-30T10:57:32;4.60;;;2.58;;
56201;SDS011;42117;50.360;3.508;2022-08-30T10:59:59;5.93;;;3.30;;
56201;SDS011;42117;50.360;3.508;2022-08-30T11:10:48;11.38;;;3.70;;
56201;SDS011;42117;50.360;3.508;2022-08-30T11:13:19;11.02;;;3.38;;
56201;SDS011;42117;50.360;3.508;2022-08-30T11:15:58;4.32;;;3.00;;
56201;SDS011;42117;50.360;3.508;2022-08-30T11:18:27;7.43;;;2.97;;
56201;SDS011;42117;50.360;3.508;2022-08-30T11:20:55;6.60;;;3.17;;
56201;SDS011;42117;50.360;3.508;2022-08-30T11:23:40;6.78;;;3.10;;
56201;SDS011;42117;50.360;3.508;2022-08-30T11:26:07;11.63;;;3.00;;
56201;SDS011;42117;50.360;3.508;2022-08-30T11:31:08;4.82;;;2.97;;
56201;SDS011;42117;50.360;3.508;2022-08-30T11:39:01;5.43;;;2.42;;
56201;SDS011;42117;50.360;3.508;2022-08-30T11:41:36;7.93;;;2.30;;
56201;SDS011;42117;50.360;3.508;2022-08-30T11:46:39;5.22;;;2.22;;
56201;SDS011;42117;50.360;3.508;2022-08-30T11:59:25;10.00;;;3.22;;
56201;SDS011;42117;50.360;3.508;2022-08-30T12:01:54;10.93;;;2.17;;
56201;SDS011;42117;50.360;3.508;2022-08-30T12:06:50;4.85;;;2.42;;
56201;SDS011;42117;50.360;3.508;2022-08-30T12:14:34;8.02;;;1.83;;
56201;SDS011;42117;50.360;3.508;2022-08-30T12:17:01;9.32;;;2.47;;
56201;SDS011;42117;50.360;3.508;2022-08-30T12:19:46;8.25;;;2.20;;
56201;SDS011;42117;50.360;3.508;2022-08-30T12:22:16;8.00;;;2.03;;
56201;SDS011;42117;50.360;3.508;2022-08-30T12:24:43;4.85;;;1.65;;
56201;SDS011;42117;50.360;3.508;2022-08-30T12:27:28;6.25;;;1.83;;
56201;SDS011;42117;50.360;3.508;2022-08-30T12:29:56;2.80;;;1.90;;
56201;SDS011;42117;50.360;3.508;2022-08-30T12:32:23;3.90;;;1.65;;
56201;SDS011;42117;50.360;3.508;2022-08-30T12:39:44;4.07;;;2.10;;
56201;SDS011;42117;50.360;3.508;2022-08-30T12:42:17;4.72;;;1.80;;
56201;SDS011;42117;50.360;3.508;2022-08-30T12:44:45;9.30;;;1.52;;
56201;SDS011;42117;50.360;3.508;2022-08-30T12:47:12;2.75;;;1.80;;
56201;SDS011;42117;50.360;3.508;2022-08-30T12:49:39;8.32;;;2.08;;
56201;SDS011;42117;50.360;3.508;2022-08-30T12:54:47;7.80;;;2.72;;
56201;SDS011;42117;50.360;3.508;2022-08-30T12:57:13;5.03;;;1.70;;
56201;SDS011;42117;50.360;3.508;2022-08-30T12:59:59;6.43;;;1.55;;
56201;SDS011;42117;50.360;3.508;2022-08-30T13:02:45;9.07;;;1.92;;
56201;SDS011;42117;50.360;3.508;2022-08-30T13:08:16;7.43;;;1.90;;
56201;SDS011;42117;50.360;3.508;2022-08-30T13:10:47;4.88;;;1.67;;
56201;SDS011;42117;50.360;3.508;2022-08-30T13:13:24;7.57;;;1.48;;
56201;SDS011;42117;50.360;3.508;2022-08-30T13:15:51;5.30;;;2.75;;
56201;SDS011;42117;50.360;3.508;2022-08-30T13:18:27;3.47;;;2.03;;
56201;SDS011;42117;50.360;3.508;2022-08-30T13:23:41;6.90;;;2.13;;
56201;SDS011;42117;50.360;3.508;2022-08-30T13:26:07;4.32;;;1.85;;
56201;SDS011;42117;50.360;3.508;2022-08-30T13:28:46;5.50;;;1.40;;
56201;SDS011;42117;50.360;3.508;2022-08-30T13:31:13;8.00;;;1.90;;
56201;SDS011;42117;50.360;3.508;2022-08-30T13:33:39;6.25;;;1.80;;
56201;SDS011;42117;50.360;3.508;2022-08-30T13:36:05;7.10;;;1.88;;
56201;SDS011;42117;50.360;3.508;2022-08-30T13:38:31;1.50;;;1.40;;
56201;SDS011;42117;50.360;3.508;2022-08-30T13:40:57;23.55;;;2.97;;
56201;SDS011;42117;50.360;3.508;2022-08-30T13:43:23;4.40;;;1.90;;
56201;SDS011;42117;50.360;3.508;2022-08-30T13:45:49;3.20;;;1.67;;
56201;SDS011;42117;50.360;3.508;2022-08-30T13:48:15;3.63;;;1.27;;
56201;SDS011;42117;50.360;3.508;2022-08-30T13:50:41;3.83;;;1.85;;
56201;SDS011;42117;50.360;3.508;2022-08-30T13:53:07;2.65;;;1.35;;
56201;SDS011;42117;50.360;3.508;2022-08-30T13:55:34;2.88;;;1.52;;
56201;SDS011;42117;50.360;3.508;2022-08-30T13:58:00;4.25;;;1.50;;
56201;SDS011;42117;50.360;3.508;2022-08-30T14:00:26;6.60;;;2.10;;
56201;SDS011;42117;50.360;3.508;2022-08-30T14:02:53;9.38;;;1.75;;
56201;SDS011;42117;50.360;3.508;2022-08-30T14:05:26;5.85;;;1.55;;
56201;SDS011;42117;50.360;3.508;2022-08-30T14:07:54;3.53;;;1.80;;
56201;SDS011;42117;50.360;3.508;2022-08-30T14:10:20;4.78;;;1.40;;
56201;SDS011;42117;50.360;3.508;2022-08-30T14:15:14;3.92;;;1.60;;
56201;SDS011;42117;50.360;3.508;2022-08-30T14:17:40;5.32;;;1.70;;
56201;SDS011;42117;50.360;3.508;2022-08-30T14:20:06;10.43;;;1.50;;
56201;SDS011;42117;50.360;3.508;2022-08-30T14:22:32;3.53;;;1.45;;
56201;SDS011;42117;50.360;3.508;2022-08-30T14:24:58;3.40;;;1.60;;
56201;SDS011;42117;50.360;3.508;2022-08-30T14:27:27;8.82;;;1.70;;
56201;SDS011;42117;50.360;3.508;2022-08-30T14:29:53;5.78;;;1.65;;
56201;SDS011;42117;50.360;3.508;2022-08-30T14:32:19;11.48;;;1.73;;
56201;SDS011;42117;50.360;3.508;2022-08-30T14:34:45;2.95;;;1.35;;
56201;SDS011;42117;50.360;3.508;2022-08-30T14:37:12;9.77;;;1.73;;
56201;SDS011;42117;50.360;3.508;2022-08-30T14:39:38;6.63;;;1.77;;
56201;SDS011;42117;50.360;3.508;2022-08-30T14:42:04;7.55;;;1.75;;
56201;SDS011;42117;50.360;3.508;2022-08-30T14:44:30;5.10;;;1.88;;
56201;SDS011;42117;50.360;3.508;2022-08-30T14:46:56;4.70;;;2.22;;
56201;SDS011;42117;50.360;3.508;2022-08-30T14:49:22;4.75;;;1.83;;
56201;SDS011;42117;50.360;3.508;2022-08-30T14:51:48;3.72;;;1.70;;
56201;SDS011;42117;50.360;3.508;2022-08-30T14:54:15;9.32;;;1.65;;
56201;SDS011;42117;50.360;3.508;2022-08-30T14:56:42;12.00;;;1.60;;
56201;SDS011;42117;50.360;3.508;2022-08-30T14:59:08;3.33;;;1.48;;
56201;SDS011;42117;50.360;3.508;2022-08-30T15:01:34;5.07;;;1.30;;
56201;SDS011;42117;50.360;3.508;2022-08-30T15:04:00;3.53;;;2.05;;
56201;SDS011;42117;50.360;3.508;2022-08-30T15:06:26;2.35;;;1.75;;
56201;SDS011;42117;50.360;3.508;2022-08-30T15:08:53;3.95;;;1.55;;
56201;SDS011;42117;50.360;3.508;2022-08-30T15:11:20;13.68;;;2.60;;
56201;SDS011;42117;50.360;3.508;2022-08-30T15:13:46;5.25;;;1.77;;
56201;SDS011;42117;50.360;3.508;2022-08-30T15:16:14;5.25;;;1.70;;
56201;SDS011;42117;50.360;3.508;2022-08-30T15:18:40;9.18;;;1.92;;
56201;SDS011;42117;50.360;3.508;2022-08-30T15:21:06;3.10;;;1.67;;
56201;SDS011;42117;50.360;3.508;2022-08-30T15:23:32;6.28;;;1.83;;
56201;SDS011;42117;50.360;3.508;2022-08-30T15:25:58;4.32;;;1.75;;
56201;SDS011;42117;50.360;3.508;2022-08-30T15:28:25;1.88;;;1.27;;
56201;SDS011;42117;50.360;3.508;2022-08-30T15:30:51;5.43;;;1.60;;
56201;SDS011;42117;50.360;3.508;2022-08-30T15:33:17;2.45;;;1.73;;
56201;SDS011;42117;50.360;3.508;2022-08-30T15:35:43;3.53;;;1.52;;
56201;SDS011;42117;50.360;3.508;2022-08-30T15:38:09;10.82;;;1.70;;
56201;SDS011;42117;50.360;3.508;2022-08-30T15:40:35;6.30;;;1.77;;
56201;SDS011;42117;50.360;3.508;2022-08-30T15:43:02;4.40;;;1.42;;
56201;SDS011;42117;50.360;3.508;2022-08-30T15:45:28;2.20;;;1.50;;
56201;SDS011;42117;50.360;3.508;2022-08-30T15:47:57;3.03;;;1.85;;
56201;SDS011;42117;50.360;3.508;2022-08-30T15:50:23;5.90;;;1.75;;
56201;SDS011;42117;50.360;3.508;2022-08-30T15:52:50;7.50;;;2.10;;
56201;SDS011;42117;50.360;3.508;2022-08-30T15:55:16;6.07;;;1.45;;
56201;SDS011;42117;50.360;3.508;2022-08-30T15:57:42;5.20;;;1.73;;
56201;SDS011;42117;50.360;3.508;2022-08-30T16:00:08;5.82;;;1.30;;
56201;SDS011;42117;50.360;3.508;2022-08-30T16:02:35;1.88;;;1.60;;
56201;SDS011;42117;50.360;3.508;2022-08-30T16:05:01;10.55;;;2.03;;
56201;SDS011;42117;50.360;3.508;2022-08-30T16:07:27;4.80;;;1.80;;
56201;SDS011;42117;50.360;3.508;2022-08-30T16:09:53;3.08;;;1.80;;
56201;SDS011;42117;50.360;3.508;2022-08-30T16:12:19;11.23;;;2.05;;
56201;SDS011;42117;50.360;3.508;2022-08-30T16:14:45;2.40;;;1.60;;